Airfield :
LOGIN :

Register | Disclaimer

   EN    FR    IT 

 










Legend :    VFR   Marginal VFR   IFR   Intensive IFR   Very Intensive IFR
Visi :
Ceiling :
>= 8 km
>= 3000ft
5 to 8 km
1000 to 3000 ft
1500m to 5 km
500 to 1000 ft
800 to 1500m
200 to 500 ft
< 800m
< 200 ft
Symbols :   Thunderstorms  Fog  Heavy snow  Heavy precipitations  Wind > 20 kt
SIGMETs :     Misc.  Thunderstorms  Icing  Turbulence  Mountain Waves  Volcanic Ashes







- Airport Elevation : 1411 ft
- IATA code : ZHI


LSZG - Grenchen

CURRENT METAR :
  • 181820Z AUTO 05002KT 8000 OVC010 00/M00 Q1025

EXPIRED METARs :
  • 181750Z AUTO VRB01KT 9999 OVC011 01/M00 Q1025
  • 181720Z AUTO 08004KT 9999 OVC011 01/00 Q1025
  • 181650Z AUTO 05002KT 9999 OVC011 00/M00 Q1024
  • 181620Z AUTO 00000KT 9999 OVC012 01/M00 Q1024
  • 181550Z 00000KT 8000 OVC011 01/M00 Q1024 NOSIG

TAF TAF LSZG
Valid from the 18 at 15:00 until the 19 at 00:00 UTC


181425Z 1815/1824 VRB03KT 5000 BR BKN015
TEMPO 1815/1818 4000 -SN BKN009
BECMG 1818/1821 2500 BR BKN008
ATIS : +41 32 396 96 33
No reported NOTAMs for that airfield.



MET'MAP, your aeronautical weather chart ! - Copyright ORBIFLY December 2007 - Disclaimer

ORBIFLY MET'MAP TEAM :

Programming & Development : Alexandra Zaïnal
Concept & Development : Baudouin d'Aumeries
Co-Development & Prog : Marc-Olivier Méhu
Technical & hardware support : Manuel Goepfert

Contact : metmap@orbifly.com




SOURCES & CREDITS :

   NOAA